Language selection

Weather shortcuts

Atlantic - Newfoundland: Past 24 Hour Conditions

 

West Chedabucto Bay - 44489

02:00 PM ADT 21 April 2024Buoy position: 45.49N 61.14W
Disclaimer

This table is a summary of hourly weather conditions for the past 24 hours.
Please note that these observations might not always be representative of weather conditions over their associated marine area.

Date / Time
(ADT)
Wind(knots) Wave height(m) Wave period(s) Pressure(kPa) Air tempC) Water tempC)
21 April 2024
14:00 SSE 7 gusts 9 0.59 6.6 101.0 6 4
13:00 SE 6 gusts 7 0.57 6.7 101.0 6 5
12:00 SW 5 gusts 7 0.64 6.6 101.1 6 4
11:00 N 5 gusts 7 0.58 6.9 101.1 6 4
10:00 NNW 9 gusts 11 0.59 6.6 101.0 5 3
9:00 NNW 11 gusts 15 0.54 6.0 100.9 5 3
8:00 NNW 12 gusts 18 0.59 6.5 100.9 5 3
7:00 N 13 gusts 18 0.60 5.9 100.8 5 3
6:00 NNW 13 gusts 16 0.56 5.5 100.6 5 3
5:00 NNW 12 gusts 14 0.56 5.7 100.6 4 3
4:00 NNW 9 gusts 12 0.51 5.1 100.5 4 3
3:00 N 9 gusts 11 0.54 4.5 100.5 4 3
2:00 NNE 5 gusts 7 0.51 4.2 100.5 4 3
1:00 SE 10 gusts 13 0.48 4.2 100.6 4 3
0:00 ESE 11 gusts 13 0.46 4.7 100.7 4 3
20 April 2024
23:00 ESE 9 gusts 10 0.39 4.8 101.0 4 3
22:00 SSE 8 gusts 10 0.38 5.6 101.2 4 3
21:00 S 4 gusts 5 0.37 4.6 101.3 4 3
20:00 S 8 gusts 10 0.42 3.9 101.3 4 3
19:00 SSW 9 gusts 11 0.49 3.4 101.4 4 3
18:00 SSW 12 gusts 15 0.57 3.3 101.4 4 3
17:00 SW 14 gusts 17 0.62 3.5 101.5 4 3
16:00 SW 13 gusts 16 0.67 3.3 101.6 4 3
15:00 SW 15 gusts 18 0.59 3.2 101.6 4 3
14:00 SSW 15 gusts 17 0.60 3.1 101.7 4 3

Zoom-in to make a selection

Map of Atlantic - Newfoundland marine weather areas Banquereau - 44139 East Chedabucto Bay – 44488 West Chedabucto Bay – 44489 Blanc-Sablon Airport Cap Whittle Chevery Natashquan Airport Heath Point Îles de la Madeleine Airport Miscou Island Eskasoni (First Nations) Grand Étang Ingonish Beach North Mountain St.Paul Island J.A. Douglas McCurdy Sydney Airport Charlottetown Airport East Point North Cape Argentia Berry Hill Bonavista Burgeo Cape Race Corner Brook Daniel's Harbour Englee Ferolle Point La Scie Port aux Basques Sagona Island St. Anthony Airport St. John's Int'l Airport St. Lawrence Stephenville Airport Twillingate Winterland Branch Hill Wreckhouse Grates Cove Pool's Island Marticot Island Long Pond Cartwright Airport Mary's Harbour
Legend:
buoy Buoy
land station Land Station

Atlantic - Newfoundland Area

Another Region

Date modified: